EAG5523 VNLK-VNRT
Flight info
| Callsign | EAG5523 |
|---|---|
| Flight time | N/A |
| Altitude | 9000 |
| Route | DCT |
| Aircraft | C172/L-V/N |
Departure
| Time | N/A |
|---|---|
| Airport | Tenzing-Hillary Airport (VNLK) |
Arrival
| Time | 2026-02-14 00:10 |
|---|---|
| Airport | Rumjatar Airport (VNRT) |
| Time | Latitude | Longitude | Altitude | Speed | Heading |
|---|---|---|---|---|---|
| 2026-02-13 23:47 | 27.68724 | 86.73157 | 9416 ft | 0 kts | 59° |
| 2026-02-13 23:52 | 27.68729 | 86.73166 | 9422 ft | 5 kts | 56° |
| 2026-02-13 23:53 | 27.68734 | 86.73170 | 9420 ft | 0 kts | 12° |
| 2026-02-13 23:53 | 27.68736 | 86.73170 | 9420 ft | 0 kts | 8° |
| 2026-02-13 23:54 | 27.68744 | 86.73170 | 9423 ft | 0 kts | 351° |
| 2026-02-13 23:54 | 27.68756 | 86.73166 | 9425 ft | 5 kts | 330° |
| 2026-02-13 23:54 | 27.68761 | 86.73163 | 9426 ft | 0 kts | 328° |
| 2026-02-13 23:55 | 27.68778 | 86.73148 | 9428 ft | 5 kts | 265° |
| 2026-02-13 23:55 | 27.68761 | 86.73118 | 9414 ft | 26 kts | 237° |
| 2026-02-13 23:55 | 27.68499 | 86.72592 | 9255 ft | 116 kts | 240° |
| 2026-02-13 23:55 | 27.68031 | 86.71740 | 9380 ft | 137 kts | 224° |
| 2026-02-13 23:56 | 27.67217 | 86.71215 | 9407 ft | 139 kts | 207° |
| 2026-02-13 23:56 | 27.66304 | 86.70755 | 9179 ft | 151 kts | 202° |
| 2026-02-13 23:56 | 27.65303 | 86.70260 | 8865 ft | 156 kts | 205° |
| 2026-02-13 23:56 | 27.64377 | 86.69749 | 8957 ft | 149 kts | 208° |
| 2026-02-13 23:57 | 27.63350 | 86.69244 | 8516 ft | 163 kts | 192° |
| 2026-02-13 23:57 | 27.61254 | 86.68573 | 8175 ft | 162 kts | 195° |
| 2026-02-13 23:57 | 27.60145 | 86.68362 | 8012 ft | 161 kts | 189° |
| 2026-02-13 23:58 | 27.59029 | 86.68173 | 7709 ft | 162 kts | 184° |
| 2026-02-13 23:58 | 27.57942 | 86.68370 | 7587 ft | 158 kts | 159° |
| 2026-02-13 23:58 | 27.57005 | 86.68989 | 7464 ft | 157 kts | 150° |
| 2026-02-13 23:58 | 27.56065 | 86.69570 | 7633 ft | 151 kts | 153° |
| 2026-02-13 23:59 | 27.55072 | 86.70004 | 7324 ft | 155 kts | 172° |
| 2026-02-13 23:59 | 27.54032 | 86.70042 | 7070 ft | 153 kts | 180° |
| 2026-02-13 23:59 | 27.52941 | 86.69955 | 6834 ft | 152 kts | 183° |
| 2026-02-13 23:59 | 27.51984 | 86.69963 | 6941 ft | 137 kts | 168° |
| 2026-02-14 00:00 | 27.51075 | 86.70301 | 6844 ft | 138 kts | 161° |
| 2026-02-14 00:00 | 27.50148 | 86.70627 | 6826 ft | 136 kts | 165° |
| 2026-02-14 00:00 | 27.49275 | 86.70938 | 7115 ft | 131 kts | 165° |
| 2026-02-14 00:00 | 27.48355 | 86.71218 | 7242 ft | 146 kts | 168° |
| 2026-02-14 00:01 | 27.47343 | 86.71332 | 7176 ft | 156 kts | 192° |
| 2026-02-14 00:01 | 27.45285 | 86.70739 | 7222 ft | 147 kts | 206° |
| 2026-02-14 00:01 | 27.44513 | 86.69872 | 7090 ft | 169 kts | 238° |
| 2026-02-14 00:02 | 27.44040 | 86.68812 | 7602 ft | 143 kts | 243° |
| 2026-02-14 00:02 | 27.43595 | 86.67799 | 7919 ft | 147 kts | 242° |
| 2026-02-14 00:02 | 27.43042 | 86.66837 | 8004 ft | 156 kts | 210° |
| 2026-02-14 00:02 | 27.41963 | 86.66795 | 7743 ft | 157 kts | 167° |
| 2026-02-14 00:03 | 27.40953 | 86.67313 | 7405 ft | 166 kts | 161° |
| 2026-02-14 00:03 | 27.39986 | 86.67303 | 7468 ft | 130 kts | 209° |
| 2026-02-14 00:03 | 27.39646 | 86.66370 | 7191 ft | 134 kts | 281° |
| 2026-02-14 00:03 | 27.40223 | 86.65698 | 7043 ft | 105 kts | 328° |
| 2026-02-14 00:04 | 27.40774 | 86.65199 | 6852 ft | 123 kts | 308° |
| 2026-02-14 00:04 | 27.41081 | 86.64571 | 6856 ft | 59 kts | 292° |
| 2026-02-14 00:04 | 27.41344 | 86.63908 | 6728 ft | 123 kts | 272° |
| 2026-02-14 00:04 | 27.40817 | 86.63122 | 6680 ft | 154 kts | 204° |
| 2026-02-14 00:05 | 27.39728 | 86.63163 | 6709 ft | 157 kts | 163° |
| 2026-02-14 00:05 | 27.37748 | 86.63152 | 7305 ft | 145 kts | 195° |
| 2026-02-14 00:05 | 27.36762 | 86.62936 | 7578 ft | 152 kts | 191° |
| 2026-02-14 00:06 | 27.35730 | 86.62710 | 7819 ft | 156 kts | 191° |
| 2026-02-14 00:06 | 27.34603 | 86.62472 | 7726 ft | 173 kts | 190° |
| 2026-02-14 00:06 | 27.33698 | 86.62085 | 7223 ft | 120 kts | 214° |
| 2026-02-14 00:06 | 27.33006 | 86.61311 | 7025 ft | 144 kts | 237° |
| 2026-02-14 00:07 | 27.32514 | 86.60274 | 6536 ft | 156 kts | 240° |
| 2026-02-14 00:07 | 27.32112 | 86.59238 | 6410 ft | 136 kts | 256° |
| 2026-02-14 00:07 | 27.32160 | 86.58244 | 6368 ft | 126 kts | 275° |
| 2026-02-14 00:07 | 27.32290 | 86.57261 | 6169 ft | 129 kts | 272° |
| 2026-02-14 00:08 | 27.32295 | 86.56255 | 6012 ft | 126 kts | 263° |
| 2026-02-14 00:08 | 27.32161 | 86.55312 | 5646 ft | 121 kts | 240° |
| 2026-02-14 00:08 | 27.31466 | 86.54946 | 5308 ft | 121 kts | 175° |
| 2026-02-14 00:08 | 27.30626 | 86.55084 | 4869 ft | 123 kts | 182° |
| 2026-02-14 00:09 | 27.29791 | 86.55020 | 4621 ft | 116 kts | 187° |
| 2026-02-14 00:09 | 27.28414 | 86.54384 | 4253 ft | 99 kts | 178° |
| 2026-02-14 00:09 | 27.28113 | 86.55009 | 4036 ft | 119 kts | 64° |
| 2026-02-14 00:10 | 27.28856 | 86.55241 | 4084 ft | 116 kts | 353° |
| 2026-02-14 00:10 | 27.29564 | 86.55115 | 4394 ft | 101 kts | 357° |
| 2026-02-14 00:10 | 27.30254 | 86.55111 | 4485 ft | 75 kts | 351° |
| 2026-02-14 00:10 | 27.30405 | 86.55087 | 4518 ft | 5 kts | 186° |
| 2026-02-14 00:11 | 27.30329 | 86.55080 | 4503 ft | 9 kts | 202° |
| 2026-02-14 00:11 | 27.30313 | 86.55060 | 4503 ft | 0 kts | 352° |